Wildwood, NJ (08260)

6:28 PM EDT on August 04, 2015 (GMT -0400)
Middle Thorofare / Two Mile Bridge, Lower Twp | | Change Station
CLOSE
Current Station
Personal Weather Station
Location: Cape May, NJ
Elevation: 5 ft
Nearby Weather Stations

Elev 5 ft 38.96 °N, 74.88 °W | Updated 11 seconds ago

Clear
Clear
87.0 °F
Feels Like 95 °F
N
0.0
Wind Variable Wind from North
Gusts 9.0 mph

Today
High -- | Low -- °F
--% Chance of Precip.
Yesterday
High -- | Low -- °F
Precip. -- in
6:02 AM 8:07 PM
Waning Gibbous, 74% visible
Pressure 29.89 in
Visibility 10.0 miles
Clouds Few 8000 ft
Heat Index 95 °F
Dew Point 73 °F
Humidity 64%
Rainfall in
Snow Depth Not available.
UV 1 out of 12
Pollen 6.90 out of 12
Air Quality Not available.
Flu Activity Not available.
METAR KWWD 042215Z AUTO 34003KT 10SM FEW080 31/19 A2989 RMK AO1

More Conditions Fewer Conditions

Pressure 29.89 in
Visibility 10.0 miles
Clouds Few 8000 ft
Heat Index 95 °F
Dew Point 73 °F
Humidity 64%
Rainfall in
Snow Depth Not available.
UV 1 out of 12
Pollen 6.90 out of 12
Air Quality Not available.
Flu Activity Not available.
METAR KWWD 042215Z AUTO 34003KT 10SM FEW080 31/19 A2989 RMK AO1

More Conditions Fewer Conditions

10-Day Weather Forecast

×

Almanac

Astronomy

Aug. 04, 2015 Rise Set
Actual Time
Civil Twilight
Nautical Twilight
Astronomical Twilight
Moon
Length of Visible Light
Length of Day
Tomorrow will be .
, % of the Moon is Illuminated

Today's Extremes

State Highs State Lows

Community

WunderPhotos

Upload Photos

1,844,007 photos uploaded!

WunderBlogs® & News

Nearby

Air Quality

  Air Quality AQ Index Pollutant
Not available.

Snow Depth

Station Depth Elevation

Earthquake Activity

City Distance Mag. Time & Date
Minimum magnitude displayed is 2.5.

Coastal Water Temperatures

Place Temperature

Stations

Nearby Weather Stations

Station Location Temp. Windchill Dew Point Humidity Wind Precip. Elev Updated Type